createdAt,value
2023-02-27T00:00:49.963Z,7.45
2023-02-27T00:05:52.151Z,7.45
2023-02-27T00:10:54.338Z,6.70
2023-02-27T00:15:56.950Z,7.63
2023-02-27T00:20:59.218Z,8.38
2023-02-27T00:26:01.397Z,8.27
2023-02-27T00:31:04.994Z,8.35
2023-02-27T00:36:07.159Z,7.75
2023-02-27T00:41:09.838Z,7.30
2023-02-27T00:46:12.128Z,7.65
2023-02-27T00:51:14.381Z,7.80
2023-02-27T00:56:16.525Z,7.78
2023-02-27T01:01:18.725Z,7.60
2023-02-27T01:06:20.818Z,8.50
2023-02-27T01:11:23.117Z,7.07
2023-02-27T01:16:25.333Z,8.00
2023-02-27T01:21:27.698Z,7.57
2023-02-27T01:26:30.136Z,8.43
2023-02-27T01:31:32.305Z,7.40
2023-02-27T01:36:34.501Z,7.57
2023-02-27T01:41:36.803Z,7.32
2023-02-27T01:46:38.982Z,7.65
2023-02-27T01:51:44.069Z,7.45
2023-02-27T01:56:46.530Z,6.05
2023-02-27T02:01:49.027Z,7.72
2023-02-27T02:06:53.450Z,6.05
2023-02-27T02:11:57.343Z,6.75
2023-02-27T02:17:18.261Z,7.72
2023-02-27T02:22:20.365Z,7.28
2023-02-27T02:27:34.186Z,8.23
2023-02-27T02:32:54.908Z,7.25
2023-02-27T02:37:59.908Z,7.40
2023-02-27T02:43:02.066Z,7.00
2023-02-27T02:48:24.513Z,7.18
2023-02-27T02:53:36.603Z,6.57
2023-02-27T02:58:52.235Z,6.88
2023-02-27T03:04:01.389Z,7.35
2023-02-27T03:09:07.490Z,6.68
2023-02-27T03:14:09.696Z,6.28
2023-02-27T03:19:14.672Z,6.38
2023-02-27T03:24:23.237Z,6.00
2023-02-27T03:29:46.017Z,5.50
2023-02-27T03:34:48.406Z,6.95
2023-02-27T03:39:50.815Z,6.70
2023-02-27T03:45:03.103Z,6.07
2023-02-27T03:50:06.312Z,6.82
2023-02-27T03:55:16.351Z,6.35
2023-02-27T04:00:23.524Z,6.07
2023-02-27T04:05:26.154Z,7.13
2023-02-27T04:10:34.251Z,6.05
2023-02-27T04:16:00.895Z,5.32
2023-02-27T04:21:19.206Z,6.38
2023-02-27T04:26:32.234Z,5.88
2023-02-27T04:31:53.194Z,6.13
2023-02-27T04:36:55.374Z,6.03
2023-02-27T04:42:00.685Z,6.70
2023-02-27T04:47:04.295Z,5.80
2023-02-27T04:52:06.508Z,7.00
2023-02-27T04:57:11.202Z,6.00
2023-02-27T05:02:16.455Z,6.57
2023-02-27T05:07:20.032Z,6.07
2023-02-27T05:12:42.555Z,6.57
2023-02-27T05:17:47.272Z,6.10
2023-02-27T05:22:55.417Z,6.45
2023-02-27T05:27:57.582Z,5.78
2023-02-27T05:33:04.259Z,6.05
2023-02-27T05:38:09.088Z,6.30
2023-02-27T05:43:15.327Z,6.43
2023-02-27T05:48:26.486Z,6.55
2023-02-27T05:53:30.931Z,5.53
2023-02-27T05:58:36.649Z,6.40
2023-02-27T06:03:40.442Z,5.45
2023-02-27T06:08:43.217Z,5.03
2023-02-27T06:13:45.717Z,5.97
2023-02-27T06:18:47.982Z,6.28
2023-02-27T06:23:50.231Z,5.35
2023-02-27T06:28:52.389Z,5.82
2023-02-27T06:33:55.978Z,5.80
2023-02-27T06:38:58.431Z,6.18
2023-02-27T06:44:00.534Z,5.57
2023-02-27T06:49:02.804Z,6.38
2023-02-27T06:54:05.052Z,5.38
2023-02-27T06:59:07.702Z,6.03
2023-02-27T07:04:13.325Z,5.18
2023-02-27T07:09:15.446Z,5.35
2023-02-27T07:14:17.769Z,5.05
2023-02-27T07:19:20.548Z,4.20
2023-02-27T07:24:22.719Z,5.53
2023-02-27T07:29:24.916Z,6.20
2023-02-27T07:34:27.063Z,7.20
2023-02-27T07:39:29.170Z,6.57
2023-02-27T07:44:31.306Z,4.95
2023-02-27T07:49:33.442Z,6.78
2023-02-27T07:54:37.780Z,6.72
2023-02-27T07:59:39.963Z,5.45
2023-02-27T08:04:42.210Z,4.55
2023-02-27T08:09:44.451Z,6.95
2023-02-27T08:14:46.577Z,6.60
2023-02-27T08:19:48.831Z,7.28
2023-02-27T08:24:50.997Z,5.07
2023-02-27T08:29:53.138Z,7.13
2023-02-27T08:34:55.433Z,7.40
2023-02-27T08:39:57.504Z,6.95
2023-02-27T08:44:59.870Z,6.05
2023-02-27T08:50:02.224Z,7.40
2023-02-27T08:55:06.017Z,6.97
2023-02-27T09:00:08.864Z,7.50
2023-02-27T09:05:11.683Z,7.78
2023-02-27T09:10:13.877Z,7.43
2023-02-27T09:15:16.059Z,8.23
2023-02-27T09:20:18.485Z,8.13
2023-02-27T09:25:20.698Z,7.63
2023-02-27T09:30:23.475Z,7.65
2023-02-27T09:35:25.885Z,8.68
2023-02-27T09:40:29.622Z,6.63
2023-02-27T09:45:33.541Z,7.10
2023-02-27T09:50:44.034Z,7.72
2023-02-27T09:55:46.627Z,8.70
2023-02-27T10:00:48.872Z,7.88
2023-02-27T10:05:59.287Z,8.60
2023-02-27T10:11:01.509Z,7.63
2023-02-27T10:16:04.328Z,9.90
2023-02-27T10:21:08.551Z,7.30
2023-02-27T10:26:18.455Z,7.05
2023-02-27T10:31:26.349Z,7.80
2023-02-27T10:36:34.013Z,6.90
2023-02-27T10:41:37.348Z,7.57
2023-02-27T10:46:40.495Z,7.80
2023-02-27T10:51:44.750Z,6.70
2023-02-27T10:56:52.511Z,6.93
2023-02-27T11:02:01.559Z,7.50
2023-02-27T11:07:05.275Z,7.45
2023-02-27T11:12:33.789Z,7.75
2023-02-27T11:17:37.171Z,8.57
2023-02-27T11:22:41.975Z,7.68
2023-02-27T11:27:46.618Z,7.65
2023-02-27T11:32:50.219Z,8.70
2023-02-27T11:37:53.960Z,7.32
2023-02-27T11:42:57.729Z,7.93
2023-02-27T11:48:09.480Z,7.75
2023-02-27T11:53:23.684Z,7.35
2023-02-27T11:58:28.590Z,7.15
2023-02-27T12:03:41.050Z,7.55
2023-02-27T12:08:49.689Z,7.95
2023-02-27T12:13:54.539Z,7.30
2023-02-27T12:19:05.105Z,8.65
2023-02-27T12:24:16.561Z,7.88
2023-02-27T12:29:25.096Z,7.38
2023-02-27T12:34:32.158Z,7.45
2023-02-27T12:39:35.238Z,7.60
2023-02-27T12:44:48.107Z,7.57
2023-02-27T12:49:57.859Z,7.57
2023-02-27T12:55:21.041Z,8.00
2023-02-27T13:00:25.882Z,7.78
2023-02-27T13:05:46.279Z,7.50
2023-02-27T13:10:51.570Z,6.90
2023-02-27T13:16:00.972Z,7.10
2023-02-27T13:21:08.723Z,8.80
2023-02-27T13:26:44.215Z,8.98
2023-02-27T13:31:50.619Z,9.43
2023-02-27T13:36:57.811Z,8.10
2023-02-27T13:42:00.021Z,8.45
2023-02-27T13:47:28.091Z,7.60
2023-02-27T13:52:31.527Z,7.43
2023-02-27T13:57:34.944Z,7.53
2023-02-27T14:02:56.770Z,7.22
2023-02-27T14:08:26.891Z,8.75
2023-02-27T14:13:47.840Z,6.28
2023-02-27T14:18:58.221Z,7.07
2023-02-27T14:24:00.477Z,8.57
2023-02-27T14:29:02.776Z,8.10
2023-02-27T14:34:09.502Z,8.13
2023-02-27T14:44:36.818Z,7.15
2023-02-27T14:49:38.917Z,8.30
2023-02-27T14:54:41.087Z,9.13
2023-02-27T14:59:44.766Z,9.32
2023-02-27T15:04:47.018Z,8.98
2023-02-27T15:09:50.283Z,9.63
2023-02-27T15:14:59.343Z,9.68
2023-02-27T15:20:01.515Z,9.30
2023-02-27T15:25:08.075Z,8.23
2023-02-27T15:30:20.339Z,6.45
2023-02-27T15:35:24.433Z,7.65
2023-02-27T15:40:28.061Z,7.82
2023-02-27T15:45:32.326Z,8.45
2023-02-27T15:50:37.245Z,6.35
2023-02-27T15:55:41.154Z,7.50
2023-02-27T16:00:43.394Z,7.95
2023-02-27T16:05:50.919Z,7.07
2023-02-27T16:10:53.473Z,7.97
2023-02-27T16:16:02.880Z,8.73
2023-02-27T16:21:11.500Z,8.35
2023-02-27T16:26:33.365Z,8.13
2023-02-27T16:31:39.839Z,7.57
2023-02-27T16:36:42.799Z,8.88
2023-02-27T16:41:44.937Z,7.93
2023-02-27T16:46:47.112Z,9.80
2023-02-27T16:51:49.618Z,9.55
2023-02-27T16:56:51.804Z,9.57
2023-02-27T17:01:54.088Z,9.15
2023-02-27T17:06:57.226Z,8.95
2023-02-27T17:11:59.472Z,8.85
2023-02-27T17:17:01.720Z,8.10
2023-02-27T17:22:04.131Z,7.97
2023-02-27T17:27:06.384Z,7.95
2023-02-27T17:32:09.043Z,7.38
2023-02-27T17:37:11.110Z,7.70
2023-02-27T17:42:16.867Z,8.57
2023-02-27T17:47:19.204Z,8.15
2023-02-27T17:52:21.470Z,9.05
2023-02-27T17:57:23.684Z,9.25
2023-02-27T18:02:25.936Z,9.35
2023-02-27T18:07:28.106Z,9.50
2023-02-27T18:12:30.308Z,9.07
2023-02-27T18:17:32.800Z,9.23
2023-02-27T18:22:35.048Z,8.32
2023-02-27T18:27:37.236Z,8.57
2023-02-27T18:32:39.368Z,7.75
2023-02-27T18:37:41.551Z,8.60
2023-02-27T18:42:44.074Z,8.88
2023-02-27T18:47:46.812Z,9.57
2023-02-27T18:52:49.270Z,9.98
2023-02-27T18:57:51.474Z,9.43
2023-02-27T19:02:53.666Z,11.70
2023-02-27T19:07:56.088Z,11.15
2023-02-27T19:12:58.318Z,10.95
2023-02-27T19:18:00.455Z,10.18
2023-02-27T19:23:02.726Z,10.75
2023-02-27T19:28:05.522Z,11.32
2023-02-27T19:33:07.737Z,11.75
2023-02-27T19:38:09.975Z,10.25
2023-02-27T19:43:15.505Z,10.75
2023-02-27T19:48:19.925Z,10.18
2023-02-27T19:53:22.366Z,10.93
2023-02-27T19:58:24.560Z,10.43
2023-02-27T20:03:26.736Z,10.27
2023-02-27T20:08:28.984Z,11.02
2023-02-27T20:13:31.439Z,10.85
2023-02-27T20:18:33.988Z,10.80
2023-02-27T20:23:37.980Z,11.10
2023-02-27T20:28:40.183Z,10.45
2023-02-27T20:33:42.829Z,8.75
2023-02-27T20:38:45.090Z,11.45
2023-02-27T20:43:47.221Z,11.60
2023-02-27T20:48:49.748Z,11.13
2023-02-27T20:53:53.585Z,10.57
2023-02-27T20:58:55.699Z,12.02
2023-02-27T21:03:58.513Z,14.18
2023-02-27T21:09:02.803Z,13.45
2023-02-27T21:14:06.659Z,13.60
2023-02-27T21:19:08.840Z,13.52
2023-02-27T21:24:11.108Z,16.20
2023-02-27T21:29:15.191Z,21.02
2023-02-27T21:34:19.785Z,25.88
2023-02-27T21:39:23.201Z,23.35
2023-02-27T21:44:25.459Z,20.50
2023-02-27T21:49:29.042Z,18.92
2023-02-27T21:54:31.269Z,20.85
2023-02-27T21:59:33.506Z,21.25
2023-02-27T22:04:35.686Z,18.63
2023-02-27T22:09:37.836Z,22.83
2023-02-27T22:14:40.056Z,22.50
2023-02-27T22:19:42.211Z,19.60
2023-02-27T22:24:44.289Z,23.80
2023-02-27T22:29:46.545Z,24.45
2023-02-27T22:34:49.902Z,25.05
2023-02-27T22:39:52.043Z,27.42
2023-02-27T22:44:54.187Z,23.30
2023-02-27T22:49:56.405Z,23.20
2023-02-27T22:54:58.559Z,23.58
2023-02-27T23:00:00.701Z,23.00
2023-02-27T23:05:02.817Z,24.50
2023-02-27T23:10:10.014Z,24.58
2023-02-27T23:15:12.421Z,24.33
2023-02-27T23:20:14.695Z,24.50
2023-02-27T23:25:16.873Z,20.45
2023-02-27T23:30:18.961Z,17.48
2023-02-27T23:35:24.432Z,18.92
2023-02-27T23:40:27.545Z,18.63
2023-02-27T23:45:30.882Z,18.27
2023-02-27T23:50:34.699Z,18.08
2023-02-27T23:55:37.210Z,14.45
